Time;durP1;ratioP1;P1;durP2;ratioP2;P2;SDS_P1;SDS_P2;PMS_P1;PMS_P2;Temp;Humidity;BMP_temperature;BMP_pressure;BME280_temperature;BME280_humidity;BME280_pressure;Samples;Min_cycle;Max_cycle;Signal;HPM_P1;HPM_P2
2020/12/11 00:00:30;;;;;;;13.80;12.07;;;;;;;4.31;71.19;94527.59;5034774;28;20202;-77
2020/12/11 00:02:56;;;;;;;13.43;11.90;;;;;;;4.31;71.21;94522.47;5035226;28;20202;-77
2020/12/11 00:05:22;;;;;;;14.43;12.43;;;;;;;4.29;70.94;94517.56;5035266;28;20525;-78
2020/12/11 00:07:47;;;;;;;15.67;12.30;;;;;;;4.32;71.13;94512.13;5034789;28;20205;-78
2020/12/11 00:10:15;;;;;;;15.10;12.67;;;;;;;4.26;70.89;94511.97;5034873;28;20210;-78
2020/12/11 00:12:41;;;;;;;14.27;11.97;;;;;;;4.24;71.48;94507.06;5035322;28;20209;-78
2020/12/11 00:15:10;;;;;;;15.53;12.63;;;;;;;4.20;71.84;94518.56;5034931;28;20233;-78
2020/12/11 00:17:37;;;;;;;13.00;11.40;;;;;;;4.21;71.63;94514.25;5035129;28;20689;-76
2020/12/11 00:20:04;;;;;;;15.10;12.37;;;;;;;4.24;71.66;94516.44;5035251;28;20559;-78
2020/12/11 00:22:30;;;;;;;15.20;12.77;;;;;;;4.22;71.52;94516.63;5035610;28;20209;-77
2020/12/11 00:24:56;;;;;;;14.80;12.73;;;;;;;4.20;71.42;94520.31;5034985;28;20222;-78
2020/12/11 00:27:22;;;;;;;15.70;12.27;;;;;;;4.19;71.39;94518.72;5033859;28;20222;-78
2020/12/11 00:29:48;;;;;;;15.33;12.97;;;;;;;4.21;71.88;94514.25;5033804;28;20760;-77
2020/12/11 00:32:17;;;;;;;15.60;12.87;;;;;;;4.18;71.72;94517.91;5034759;28;20201;-78
2020/12/11 00:34:43;;;;;;;14.47;12.13;;;;;;;4.18;71.03;94515.38;5034196;28;20226;-78
2020/12/11 00:37:09;;;;;;;12.73;10.77;;;;;;;4.22;71.06;94514.09;5034733;28;20194;-76
2020/12/11 00:39:36;;;;;;;14.67;11.47;;;;;;;4.25;70.87;94515.50;5034087;28;20206;-77
2020/12/11 00:42:02;;;;;;;12.87;10.60;;;;;;;4.27;70.26;94514.38;5034057;28;20229;-77
2020/12/11 00:44:28;;;;;;;12.83;11.43;;;;;;;4.31;70.06;94507.19;5033564;28;20222;-78
2020/12/11 00:46:55;;;;;;;9.93;8.93;;;;;;;4.28;68.70;94502.44;5033950;28;20585;-79
2020/12/11 00:49:22;;;;;;;10.00;8.73;;;;;;;4.20;68.22;94502.47;5034134;28;20230;-78
2020/12/11 00:51:53;;;;;;;10.27;8.63;;;;;;;4.13;68.59;94500.56;5034539;28;20209;-77
2020/12/11 00:54:19;;;;;;;10.40;8.90;;;;;;;4.19;68.86;94500.88;5033370;28;20656;-78
2020/12/11 00:56:45;;;;;;;9.97;8.97;;;;;;;4.22;68.91;94480.97;5034180;28;20202;-78
2020/12/11 00:59:11;;;;;;;10.47;9.37;;;;;;;4.21;68.60;94481.94;5034398;28;20210;-77
2020/12/11 01:01:37;;;;;;;10.53;9.43;;;;;;;4.25;68.68;94475.53;5034530;28;20206;-77
2020/12/11 01:04:03;;;;;;;11.03;9.80;;;;;;;4.26;68.51;94486.50;5033828;28;20222;-77
2020/12/11 01:06:30;;;;;;;10.57;9.47;;;;;;;4.29;68.18;94481.88;5033826;28;20260;-78
2020/12/11 01:08:56;;;;;;;12.00;10.37;;;;;;;4.31;68.09;94485.06;5033987;28;20202;-78
2020/12/11 01:11:22;;;;;;;11.77;10.10;;;;;;;4.24;67.92;94488.41;5033608;28;20710;-76
2020/12/11 01:13:48;;;;;;;12.27;10.70;;;;;;;4.16;68.72;94481.63;5033844;28;20248;-78
2020/12/11 01:16:14;;;;;;;12.33;10.63;;;;;;;4.18;69.31;94482.25;5034611;28;20209;-78
2020/12/11 01:18:40;;;;;;;11.57;10.37;;;;;;;4.19;68.98;94477.97;5034713;28;20669;-78
2020/12/11 01:21:06;;;;;;;11.97;10.60;;;;;;;4.20;69.19;94477.78;5033393;28;20677;-78
2020/12/11 01:23:35;;;;;;;12.37;10.70;;;;;;;4.06;69.36;94479.25;5034277;28;20229;-76
2020/12/11 01:26:01;;;;;;;12.50;10.87;;;;;;;4.08;69.87;94476.53;5034399;28;20222;-77
2020/12/11 01:28:27;;;;;;;12.37;11.07;;;;;;;4.07;69.50;94480.03;5034106;28;20727;-79
2020/12/11 01:30:53;;;;;;;12.20;10.70;;;;;;;4.10;69.47;94470.31;5033704;28;20255;-78
2020/12/11 01:33:19;;;;;;;11.97;10.47;;;;;;;4.13;69.34;94474.31;5034021;28;20202;-77
2020/12/11 01:35:46;;;;;;;12.87;10.87;;;;;;;4.18;69.45;94482.25;5033854;28;20229;-77
2020/12/11 01:38:12;;;;;;;12.57;11.17;;;;;;;4.22;68.75;94480.19;5033468;28;20208;-78
2020/12/11 01:40:38;;;;;;;12.97;10.83;;;;;;;4.22;68.95;94477.63;5033776;28;20202;-78
2020/12/11 01:43:04;;;;;;;13.40;10.63;;;;;;;4.24;69.15;94473.94;5034197;28;20206;-78
2020/12/11 01:45:30;;;;;;;14.23;12.03;;;;;;;4.15;69.64;94478.28;5032953;28;20241;-78
2020/12/11 01:47:57;;;;;;;11.60;10.40;;;;;;;4.02;69.50;94474.66;5034321;28;20206;-78
2020/12/11 01:50:23;;;;;;;12.47;9.70;;;;;;;4.03;69.51;94471.97;5033520;28;20213;-79
2020/12/11 01:52:51;;;;;;;12.43;11.10;;;;;;;4.09;69.82;94465.41;5035921;28;20202;-78
2020/12/11 01:55:17;;;;;;;14.53;10.90;;;;;;;4.09;69.41;94463.66;5037217;28;20260;-78
2020/12/11 01:57:53;;;;;;;12.73;11.37;;;;;;;4.12;69.51;94462.53;5037964;28;20684;-78
2020/12/11 02:00:20;;;;;;;12.47;11.17;;;;;;;4.18;69.90;94461.09;5037633;28;20251;-78
2020/12/11 02:02:47;;;;;;;13.30;11.23;;;;;;;4.12;69.30;94465.06;5038064;28;20296;-77
2020/12/11 02:05:13;;;;;;;11.77;10.53;;;;;;;4.15;69.45;94465.53;5036853;28;20223;-77
2020/12/11 02:07:40;;;;;;;12.83;10.73;;;;;;;4.10;69.21;94460.13;5037480;28;20202;-77
2020/12/11 02:10:10;;;;;;;12.40;10.40;;;;;;;4.16;69.13;94456.16;5037576;28;20202;-78
2020/12/11 02:12:36;;;;;;;11.60;10.40;;;;;;;4.19;69.33;94457.59;5037551;28;20202;-78
2020/12/11 02:15:04;;;;;;;11.80;10.43;;;;;;;4.13;68.78;94457.28;5036471;28;20775;-78
2020/12/11 02:17:30;;;;;;;11.33;10.13;;;;;;;4.14;69.01;94458.88;5037204;28;20202;-78
2020/12/11 02:19:57;;;;;;;10.90;9.77;;;;;;;4.10;69.18;94446.63;5037424;28;20292;-78
2020/12/11 02:22:23;;;;;;;10.73;9.63;;;;;;;4.11;69.05;94448.19;5036860;28;20202;-76
2020/12/11 02:24:50;;;;;;;11.43;10.23;;;;;;;4.09;69.23;94434.84;5036430;28;20245;-79
2020/12/11 02:27:17;;;;;;;11.83;10.20;;;;;;;4.05;69.72;94434.38;5036910;28;20715;-78
2020/12/11 02:29:42;;;;;;;12.43;10.53;;;;;;;4.08;69.54;94435.78;5036589;28;20260;-78
2020/12/11 02:32:13;;;;;;;11.07;9.63;;;;;;;4.06;69.68;94432.63;5036345;28;20198;-78
2020/12/11 02:34:39;;;;;;;12.43;10.60;;;;;;;4.11;69.46;94422.72;5036531;28;20313;-77
2020/12/11 02:37:05;;;;;;;10.97;9.77;;;;;;;4.15;69.54;94424.00;5037234;28;20263;-77
2020/12/11 02:39:32;;;;;;;12.43;11.00;;;;;;;4.14;69.43;94425.75;5036538;28;20632;-76
2020/12/11 02:41:58;;;;;;;11.37;9.70;;;;;;;4.20;69.18;94431.94;5036337;28;20202;-79
2020/12/11 02:44:24;;;;;;;12.27;10.70;;;;;;;4.21;69.27;94423.34;5036646;28;20571;-77
2020/12/11 02:46:50;;;;;;;11.57;10.37;;;;;;;4.20;69.29;94410.78;5036762;28;20226;-78
2020/12/11 02:49:16;;;;;;;11.67;9.97;;;;;;;4.16;68.83;94416.19;5035954;28;20205;-77
2020/12/11 02:51:42;;;;;;;10.97;9.87;;;;;;;4.12;69.02;94416.69;5036175;28;20201;-77
2020/12/11 02:54:08;;;;;;;11.60;10.40;;;;;;;4.13;69.11;94400.44;5036500;28;20665;-76
2020/12/11 02:56:34;;;;;;;11.47;10.10;;;;;;;4.19;69.14;94401.53;5037340;28;20220;-77
2020/12/11 02:59:00;;;;;;;12.30;10.53;;;;;;;4.22;68.99;94408.84;5036605;28;20209;-77
2020/12/11 03:01:26;;;;;;;11.47;10.27;;;;;;;4.22;69.34;94399.47;5036625;28;20206;-77
2020/12/11 03:03:54;;;;;;;11.87;10.33;;;;;;;4.04;69.11;94397.13;5036045;28;20213;-77
2020/12/11 03:06:25;;;;;;;11.93;10.50;;;;;;;4.03;69.65;94389.69;5036816;28;20225;-77
2020/12/11 03:08:51;;;;;;;13.47;11.10;;;;;;;4.03;70.08;94382.03;5037608;28;20297;-77
2020/12/11 03:11:17;;;;;;;13.23;11.10;;;;;;;4.07;70.10;94380.72;5040785;28;20677;-77
2020/12/11 03:13:44;;;;;;;13.77;11.20;;;;;;;4.07;70.14;94378.19;5035814;28;20217;-77
2020/12/11 03:16:10;;;;;;;14.87;11.77;;;;;;;4.05;70.87;94380.88;5035823;28;20198;-78
2020/12/11 03:18:37;;;;;;;14.47;12.13;;;;;;;3.99;71.60;94370.59;5035707;28;20572;-78
2020/12/11 03:21:03;;;;;;;15.60;12.03;;;;;;;3.84;72.24;94362.88;5035845;28;20256;-76
2020/12/11 03:23:29;;;;;;;15.73;13.10;;;;;;;3.78;73.39;94373.69;5036724;28;20636;-77
2020/12/11 03:25:55;;;;;;;15.93;13.07;;;;;;;3.68;74.40;94370.53;5036069;28;20234;-77
2020/12/11 03:28:20;;;;;;;14.80;12.53;;;;;;;3.60;74.90;94366.28;5037075;28;20212;-77
2020/12/11 03:30:47;;;;;;;15.00;12.93;;;;;;;3.58;75.46;94368.19;5042113;28;20233;-77
2020/12/11 03:33:13;;;;;;;15.90;12.87;;;;;;;3.63;75.41;94372.81;5041239;28;20212;-77
2020/12/11 03:35:39;;;;;;;15.63;12.97;;;;;;;3.65;75.05;94364.03;5035254;28;20218;-76
2020/12/11 03:38:05;;;;;;;14.40;12.00;;;;;;;3.60;75.33;94361.19;5036068;28;20268;-76
2020/12/11 03:40:31;;;;;;;15.83;12.23;;;;;;;3.63;74.91;94365.97;5035556;28;20202;-76
2020/12/11 03:42:57;;;;;;;15.17;12.50;;;;;;;3.67;74.79;94362.09;5035901;28;20697;-77
2020/12/11 03:45:23;;;;;;;14.83;12.33;;;;;;;3.73;74.44;94355.56;5034770;28;20222;-77
2020/12/11 03:47:50;;;;;;;16.93;13.03;;;;;;;3.60;75.13;94345.13;5035138;28;20227;-77
2020/12/11 03:50:16;;;;;;;15.50;12.43;;;;;;;3.60;75.44;94345.91;5034731;28;20214;-77
2020/12/11 03:52:42;;;;;;;15.10;12.33;;;;;;;3.47;75.96;94338.00;5034548;28;20206;-77
2020/12/11 03:55:08;;;;;;;16.40;12.40;;;;;;;3.39;76.44;94343.13;5034401;28;20218;-75
2020/12/11 03:57:34;;;;;;;15.40;12.53;;;;;;;3.38;76.37;94346.63;5034622;28;20199;-76
2020/12/11 03:59:59;;;;;;;16.67;13.13;;;;;;;3.27;76.20;94345.19;5034441;28;20234;-77
2020/12/11 04:02:25;;;;;;;16.20;12.63;;;;;;;3.32;76.55;94352.34;5034072;28;20198;-77
2020/12/11 04:04:52;;;;;;;15.50;12.90;;;;;;;3.41;76.01;94349.63;5034591;28;20253;-78
2020/12/11 04:07:18;;;;;;;17.63;13.23;;;;;;;3.28;76.21;94331.53;5034354;28;20629;-78
2020/12/11 04:09:44;;;;;;;17.57;13.83;;;;;;;3.16;76.74;94337.91;5034173;28;20209;-77
2020/12/11 04:12:10;;;;;;;17.30;13.67;;;;;;;2.99;77.53;94328.75;5034067;28;20202;-77
2020/12/11 04:14:36;;;;;;;17.67;13.63;;;;;;;2.73;78.74;94327.16;5033527;28;20283;-77
2020/12/11 04:17:02;;;;;;;18.97;13.60;;;;;;;2.65;79.71;94323.84;5033886;28;20549;-77
2020/12/11 04:19:28;;;;;;;18.13;14.03;;;;;;;2.74;78.98;94335.56;5033913;28;20264;-78
2020/12/11 04:21:55;;;;;;;18.70;13.80;;;;;;;2.82;78.70;94330.50;5033910;28;20260;-77
2020/12/11 04:24:22;;;;;;;19.63;14.47;;;;;;;2.93;78.24;94337.78;5033682;28;20229;-76
2020/12/11 04:26:49;;;;;;;18.40;14.60;;;;;;;3.04;77.50;94334.94;5033433;28;20229;-77
2020/12/11 04:29:15;;;;;;;19.00;14.63;;;;;;;3.13;76.44;94323.78;5034695;28;20276;-79
2020/12/11 04:31:41;;;;;;;19.23;14.53;;;;;;;3.19;76.39;94324.09;5034350;28;20665;-76
2020/12/11 04:34:08;;;;;;;18.77;14.03;;;;;;;3.21;76.01;94322.19;5033810;28;20218;-77
2020/12/11 04:36:34;;;;;;;17.97;14.37;;;;;;;3.06;77.09;94306.81;5034207;28;20194;-77
2020/12/11 04:39:00;;;;;;;19.10;14.90;;;;;;;2.96;77.71;94314.59;5033518;28;20202;-77
2020/12/11 04:41:28;;;;;;;17.50;14.60;;;;;;;2.91;77.50;94313.47;5034138;28;20202;-77
2020/12/11 04:43:56;;;;;;;18.47;14.47;;;;;;;2.98;77.14;94314.44;5033359;28;20214;-77
2020/12/11 04:46:26;;;;;;;19.17;14.23;;;;;;;3.06;76.72;94305.06;5033666;28;20253;-77
2020/12/11 04:48:53;;;;;;;18.97;14.93;;;;;;;2.94;77.40;94306.34;5033855;28;20205;-77
2020/12/11 04:51:21;;;;;;;19.10;14.00;;;;;;;2.84;77.59;94305.72;5033190;28;20198;-76
2020/12/11 04:53:52;;;;;;;17.43;13.70;;;;;;;2.78;77.74;94299.53;5032827;28;20201;-77
2020/12/11 04:56:21;;;;;;;19.33;14.33;;;;;;;2.71;77.89;94293.50;5033616;28;20197;-76
2020/12/11 04:58:50;;;;;;;17.83;14.07;;;;;;;2.57;78.92;94296.69;5033949;28;20209;-77
2020/12/11 05:01:27;;;;;;;19.37;14.70;;;;;;;2.46;79.19;94291.94;5033466;28;20210;-77
2020/12/11 05:03:54;;;;;;;19.43;14.07;;;;;;;2.35;79.87;94280.31;5033275;28;20202;-77
2020/12/11 05:06:20;;;;;;;18.30;14.47;;;;;;;2.33;80.22;94269.53;5033387;28;20229;-77
2020/12/11 05:08:46;;;;;;;19.67;14.83;;;;;;;2.17;81.11;94276.34;5033181;28;20556;-76
2020/12/11 05:11:25;;;;;;;19.53;14.17;;;;;;;2.14;81.73;94269.03;5033331;28;20206;-77
2020/12/11 05:13:53;;;;;;;17.27;13.50;;;;;;;2.00;81.84;94270.47;5033687;28;20209;-77
2020/12/11 05:16:21;;;;;;;19.97;13.80;;;;;;;1.92;82.41;94271.25;5033474;28;20226;-77
2020/12/11 05:18:47;;;;;;;17.80;14.27;;;;;;;1.95;82.28;94275.22;5033601;28;20340;-77
2020/12/11 05:21:18;;;;;;;20.93;15.00;;;;;;;1.95;82.36;94273.47;5027561;28;20222;-77
2020/12/11 05:24:06;;;;;;;19.60;14.70;;;;;;;1.98;82.22;94263.00;5018424;28;20228;-78
2020/12/11 05:26:34;;;;;;;19.67;15.37;;;;;;;1.98;82.91;94255.41;5026464;28;20229;-78
2020/12/11 05:29:02;;;;;;;19.40;15.17;;;;;;;1.91;83.34;94249.38;5041920;28;20750;-79
2020/12/11 05:31:29;;;;;;;19.70;14.83;;;;;;;1.91;83.52;94246.84;5044551;28;20281;-77
2020/12/11 05:34:11;;;;;;;19.53;13.73;;;;;;;1.71;84.43;94248.88;5036455;28;20700;-76
2020/12/11 05:36:47;;;;;;;20.30;14.67;;;;;;;1.77;84.98;94247.44;5034942;28;20207;-77
2020/12/11 05:39:17;;;;;;;43.40;29.37;;;;;;;1.92;85.08;94250.16;5028916;28;20195;-77
2020/12/11 05:41:44;;;;;;;21.77;15.40;;;;;;;2.02;83.21;94249.06;5017258;28;20203;-78
2020/12/11 05:44:23;;;;;;;19.23;13.07;;;;;;;1.94;83.72;94238.09;5016342;28;20223;-79
2020/12/11 05:46:49;;;;;;;17.90;13.33;;;;;;;1.95;83.49;94240.47;5017356;28;20704;-77
2020/12/11 05:49:22;;;;;;;18.13;13.60;;;;;;;2.08;82.83;94250.19;5017423;28;20260;-79
2020/12/11 05:51:56;;;;;;;19.20;13.60;;;;;;;2.06;82.50;94249.53;5024562;28;20208;-78
2020/12/11 05:54:23;;;;;;;16.63;12.37;;;;;;;1.93;83.74;94244.13;5035639;28;20261;-77
2020/12/11 05:56:51;;;;;;;17.60;12.50;;;;;;;1.81;84.24;94242.84;5036675;28;20237;-78
2020/12/11 05:59:25;;;;;;;67.43;45.43;;;;;;;1.77;84.66;94233.94;5036737;28;20285;-77
2020/12/11 06:01:55;;;;;;;20.73;15.73;;;;;;;1.77;84.92;94236.47;5036569;28;20205;-80
2020/12/11 06:04:21;;;;;;;19.70;14.33;;;;;;;1.83;84.57;94229.06;5036150;28;20226;-78
2020/12/11 06:06:51;;;;;;;18.97;13.37;;;;;;;1.79;84.68;94234.59;5036109;28;20233;-77
2020/12/11 06:09:27;;;;;;;19.13;13.70;;;;;;;1.70;84.81;94233.78;5036353;28;20198;-77
2020/12/11 06:11:58;;;;;;;17.23;13.00;;;;;;;1.78;84.97;94235.53;5036803;28;20213;-78
2020/12/11 06:14:40;;;;;;;19.47;13.67;;;;;;;1.63;85.05;94226.00;5036443;28;20219;-78
2020/12/11 06:17:08;;;;;;;18.63;13.33;;;;;;;1.55;86.09;94230.25;5036575;28;20198;-78
2020/12/11 06:19:35;;;;;;;19.70;14.63;;;;;;;1.58;86.36;94219.81;5037222;28;20232;-79
2020/12/11 06:22:01;;;;;;;19.67;13.40;;;;;;;1.60;86.19;94215.38;5038128;28;20210;-78
2020/12/11 06:24:29;;;;;;;20.17;14.47;;;;;;;1.66;85.89;94217.28;5037149;28;20237;-78
2020/12/11 06:26:57;;;;;;;19.33;14.20;;;;;;;1.52;87.06;94208.56;5036996;28;20712;-78
2020/12/11 06:29:26;;;;;;;20.10;13.90;;;;;;;1.38;87.82;94215.00;5037701;28;20202;-78
2020/12/11 06:31:52;;;;;;;19.60;13.70;;;;;;;1.35;88.74;94212.75;5036875;28;20233;-78
2020/12/11 06:34:21;;;;;;;21.63;14.97;;;;;;;1.49;88.33;94203.78;5036902;28;20218;-78
2020/12/11 06:36:47;;;;;;;19.03;14.50;;;;;;;1.69;86.96;94209.38;5039464;28;20202;-79
2020/12/11 06:39:45;;;;;;;23.23;15.27;;;;;;;1.73;86.38;94203.81;5036255;28;20278;-78
2020/12/11 06:42:39;;;;;;;20.87;13.97;;;;;;;1.59;86.94;94196.81;5036724;28;20212;-79
2020/12/11 06:45:15;;;;;;;20.27;14.57;;;;;;;1.48;87.88;94194.59;5037336;28;20250;-78
2020/12/11 06:47:49;;;;;;;21.27;14.77;;;;;;;1.52;87.91;94190.00;5036417;28;20697;-78
2020/12/11 06:50:17;;;;;;;22.37;14.97;;;;;;;1.54;87.78;94188.13;5036182;28;20680;-77
2020/12/11 06:52:45;;;;;;;19.47;13.87;;;;;;;1.49;88.13;94178.44;5036529;28;20241;-80
2020/12/11 06:55:12;;;;;;;22.80;15.03;;;;;;;1.57;87.91;94185.25;5035791;28;20230;-79
2020/12/11 06:57:43;;;;;;;19.67;14.73;;;;;;;1.65;87.08;94175.91;5036101;28;20202;-80
2020/12/11 07:00:28;;;;;;;18.17;13.83;;;;;;;1.59;87.32;94174.00;5035287;28;20202;-78
2020/12/11 07:03:20;;;;;;;21.60;15.10;;;;;;;1.54;87.39;94180.50;5030300;28;20202;-80
2020/12/11 07:05:55;;;;;;;19.87;14.63;;;;;;;1.55;87.20;94169.38;5035521;28;20705;-77
2020/12/11 07:08:21;;;;;;;20.53;14.97;;;;;;;1.61;87.35;94166.22;5036047;28;20573;-79
2020/12/11 07:10:52;;;;;;;19.07;14.17;;;;;;;1.68;87.11;94170.53;5035468;28;20202;-78
2020/12/11 07:13:23;;;;;;;20.47;15.03;;;;;;;1.61;86.81;94167.03;5035707;28;20202;-77
2020/12/11 07:15:57;;;;;;;22.17;15.37;;;;;;;1.57;87.23;94168.28;5035342;28;20305;-78
2020/12/11 07:18:23;;;;;;;20.97;15.30;;;;;;;1.61;87.23;94169.56;5035995;28;20236;-77
2020/12/11 07:20:50;;;;;;;19.87;14.77;;;;;;;1.73;86.71;94180.97;5035432;28;20198;-78
2020/12/11 07:23:17;;;;;;;20.00;14.43;;;;;;;1.82;85.50;94178.47;5035090;28;20198;-79
2020/12/11 07:25:43;;;;;;;19.97;14.47;;;;;;;1.89;84.26;94185.28;5017844;28;20226;-79
2020/12/11 07:28:10;;;;;;;21.27;15.03;;;;;;;2.10;83.89;94184.81;5015380;28;20568;-80
2020/12/11 07:30:36;;;;;;;18.10;14.30;;;;;;;2.15;83.39;94184.31;5019192;28;20203;-79
2020/12/11 07:33:09;;;;;;;19.73;13.80;;;;;;;2.24;82.23;94176.56;5015444;28;20248;-77
2020/12/11 07:35:35;;;;;;;17.73;13.73;;;;;;;2.23;82.24;94172.44;5014775;28;20226;-79
2020/12/11 07:38:01;;;;;;;19.40;14.30;;;;;;;2.26;82.27;94166.25;5014733;28;20201;-79
2020/12/11 07:40:27;;;;;;;19.10;14.47;;;;;;;2.42;82.01;94164.47;5014538;28;20587;-76
2020/12/11 07:42:53;;;;;;;17.37;14.27;;;;;;;2.55;80.85;94160.63;5014659;28;20233;-80
2020/12/11 07:45:28;;;;;;;16.93;13.50;;;;;;;2.66;80.50;94161.09;5014964;28;20231;-78
2020/12/11 07:47:55;;;;;;;17.67;13.20;;;;;;;2.77;79.77;94158.19;5014603;28;20237;-80
2020/12/11 07:50:23;;;;;;;18.07;13.30;;;;;;;2.71;79.47;94158.03;5013971;28;20203;-78
2020/12/11 07:52:51;;;;;;;17.27;12.30;;;;;;;2.65;79.32;94158.72;5014891;28;20205;-80
2020/12/11 07:55:17;;;;;;;20.40;14.03;;;;;;;2.61;79.65;94153.16;5014022;28;20230;-79
2020/12/11 07:57:50;;;;;;;17.20;13.30;;;;;;;2.53;79.78;94150.63;5014584;28;20203;-77
2020/12/11 08:00:16;;;;;;;17.10;12.87;;;;;;;2.43;80.53;94143.19;5015112;28;20206;-80
2020/12/11 08:02:43;;;;;;;19.73;14.03;;;;;;;2.33;80.89;94142.56;5015723;28;20199;-79
2020/12/11 08:05:09;;;;;;;19.13;13.57;;;;;;;2.23;80.95;94139.44;5034600;28;20225;-78
2020/12/11 08:07:36;;;;;;;17.50;13.00;;;;;;;2.19;81.91;94138.16;5034190;28;20598;-78
2020/12/11 08:10:09;;;;;;;19.97;13.97;;;;;;;2.16;82.33;94141.00;5034833;28;20198;-79
2020/12/11 08:12:35;;;;;;;19.27;13.30;;;;;;;2.31;85.49;94136.09;5034966;28;20276;-78
2020/12/11 08:15:01;;;;;;;17.03;12.77;;;;;;;2.69;92.76;94135.31;5034323;28;20226;-79
2020/12/11 08:17:30;;;;;;;17.20;12.70;;;;;;;2.72;80.61;94127.38;5034706;28;20658;-78
2020/12/11 08:20:01;;;;;;;18.30;12.80;;;;;;;2.55;79.88;94130.13;5034776;28;20293;-78
2020/12/11 08:22:32;;;;;;;16.03;12.57;;;;;;;2.41;80.86;94129.06;5034250;28;20209;-77
2020/12/11 08:24:58;;;;;;;17.33;12.33;;;;;;;2.36;80.43;94119.38;5034142;28;20211;-78
2020/12/11 08:27:26;;;;;;;16.83;12.53;;;;;;;2.17;81.49;94124.81;5034433;28;20222;-78
2020/12/11 08:30:08;;;;;;;15.33;11.67;;;;;;;2.15;81.57;94120.84;5034336;28;20201;-79
2020/12/11 08:32:34;;;;;;;17.83;12.53;;;;;;;2.10;82.45;94126.44;5035074;28;20614;-78
2020/12/11 08:35:01;;;;;;;21.07;12.33;;;;;;;2.05;82.01;94123.59;5033920;28;20229;-79
2020/12/11 08:37:27;;;;;;;19.43;13.30;;;;;;;2.20;82.25;94119.44;5034422;28;20684;-78
2020/12/11 08:40:03;;;;;;;17.47;13.00;;;;;;;2.22;82.40;94125.16;5034866;28;20198;-80
2020/12/11 08:42:33;;;;;;;18.60;13.10;;;;;;;2.33;82.00;94111.31;5034379;28;20308;-78
2020/12/11 08:45:11;;;;;;;20.73;13.10;;;;;;;2.39;81.26;94115.75;5034045;28;20762;-79
2020/12/11 08:48:06;;;;;;;18.37;13.10;;;;;;;2.41;80.71;94114.63;5034158;28;21049;-78
2020/12/11 08:50:40;;;;;;;18.03;12.73;;;;;;;2.53;80.56;94111.72;5033522;28;20260;-79
2020/12/11 08:53:08;;;;;;;17.30;12.33;;;;;;;2.57;80.49;94106.16;5032782;28;20201;-78
2020/12/11 08:55:34;;;;;;;18.27;12.83;;;;;;;2.56;80.28;94103.78;5031975;28;20245;-79
2020/12/11 08:58:00;;;;;;;19.43;13.80;;;;;;;2.67;80.26;94098.34;5032930;28;20206;-77
2020/12/11 09:00:26;;;;;;;20.80;13.33;;;;;;;2.81;80.00;94094.31;5032727;28;20202;-77
2020/12/11 09:02:52;;;;;;;17.50;12.87;;;;;;;2.87;79.67;94086.84;5032365;28;20312;-76
2020/12/11 09:05:18;;;;;;;16.90;12.80;;;;;;;2.86;79.14;94084.47;5032276;28;20275;-77
2020/12/11 09:07:45;;;;;;;19.03;13.43;;;;;;;2.72;79.79;94099.44;5032463;28;20320;-79
2020/12/11 09:10:12;;;;;;;17.40;12.93;;;;;;;2.63;79.63;94097.09;5032464;28;20209;-78
2020/12/11 09:12:38;;;;;;;17.27;12.87;;;;;;;2.52;80.34;94098.22;5032653;28;20213;-77
2020/12/11 09:15:09;;;;;;;17.07;12.63;;;;;;;2.44;81.29;94095.72;5032405;28;20226;-77
2020/12/11 09:17:35;;;;;;;17.83;11.93;;;;;;;2.35;81.66;94094.16;5032425;28;20292;-76
2020/12/11 09:20:01;;;;;;;17.30;12.33;;;;;;;2.50;81.33;94084.13;5032551;28;20209;-76
2020/12/11 09:22:27;;;;;;;17.03;12.13;;;;;;;2.56;81.08;94074.09;5032396;28;20202;-77
2020/12/11 09:24:53;;;;;;;17.17;11.93;;;;;;;2.67;80.36;94070.41;5032543;28;20292;-77
2020/12/11 09:27:19;;;;;;;14.90;11.60;;;;;;;2.73;79.60;94059.56;5032779;28;20221;-79
2020/12/11 09:29:47;;;;;;;14.07;10.93;;;;;;;2.69;79.91;94060.88;5032744;28;20224;-79
2020/12/11 09:32:22;;;;;;;14.00;10.47;;;;;;;2.74;79.74;94054.31;5032404;28;20260;-79
2020/12/11 09:34:48;;;;;;;13.67;10.60;;;;;;;2.85;80.04;94049.84;5032405;28;20312;-78
2020/12/11 09:37:15;;;;;;;14.73;10.87;;;;;;;2.85;78.85;94060.00;5032192;28;20324;-78
2020/12/11 09:39:41;;;;;;;14.57;11.60;;;;;;;2.84;78.87;94048.25;5032292;28;20693;-79
2020/12/11 09:42:20;;;;;;;14.43;11.13;;;;;;;2.86;78.41;94048.88;5032784;28;20301;-78
2020/12/11 09:44:58;;;;;;;14.40;11.07;;;;;;;2.93;79.15;94039.59;5032652;28;20218;-78
2020/12/11 09:53:15;;;;;;;12.53;10.60;;;;;;;3.09;78.83;94022.50;5023145;28;20336;-77
2020/12/11 09:55:43;;;;;;;13.67;10.80;;;;;;;3.22;77.21;94019.41;5032373;28;20268;-78
2020/12/11 09:58:10;;;;;;;13.07;10.00;;;;;;;3.19;76.85;94019.75;5032467;28;20244;-79
2020/12/11 10:00:39;;;;;;;14.07;10.00;;;;;;;3.17;76.69;94015.78;5032738;28;20724;-79
2020/12/11 10:03:07;;;;;;;11.43;9.27;;;;;;;3.05;76.22;94007.78;5033073;28;20206;-77
2020/12/11 10:05:33;;;;;;;10.43;8.93;;;;;;;3.07;76.75;94001.56;5031598;28;20225;-77
2020/12/11 10:07:59;;;;;;;14.80;9.60;;;;;;;3.13;76.44;94000.06;5032227;28;20643;-78
2020/12/11 10:10:25;;;;;;;12.90;9.20;;;;;;;3.17;75.65;93992.91;5031825;28;20560;-79
2020/12/11 10:12:52;;;;;;;10.37;8.97;;;;;;;3.25;75.30;93993.66;5032758;28;20213;-76
2020/12/11 10:15:20;;;;;;;9.93;7.77;;;;;;;3.24;75.92;93984.44;5035987;28;20253;-78
2020/12/11 10:17:47;;;;;;;8.77;7.47;;;;;;;3.26;74.85;93982.50;5036528;28;20207;-78
2020/12/11 10:20:18;;;;;;;9.50;7.90;;;;;;;3.27;74.00;93971.34;5035921;28;20209;-76
2020/12/11 10:22:44;;;;;;;10.03;8.40;;;;;;;3.34;74.29;93968.94;5035969;28;20206;-78
2020/12/11 10:25:10;;;;;;;10.63;8.43;;;;;;;3.46;74.67;93965.03;5035365;28;20222;-77
2020/12/11 10:27:36;;;;;;;9.77;8.23;;;;;;;3.62;74.62;93959.78;5037664;28;20596;-77
2020/12/11 10:30:02;;;;;;;10.27;8.67;;;;;;;3.87;74.70;93962.84;5038460;28;20206;-77
2020/12/11 10:32:30;;;;;;;14.23;9.60;;;;;;;3.96;74.10;93963.56;5037663;28;20209;-77
2020/12/11 10:34:56;;;;;;;14.43;9.37;;;;;;;4.01;74.14;93969.72;5036091;28;20696;-76
2020/12/11 10:37:23;;;;;;;10.97;9.37;;;;;;;4.10;72.72;93965.31;5038438;28;20194;-78
2020/12/11 10:39:49;;;;;;;10.93;9.03;;;;;;;4.15;72.63;93968.13;5039709;28;20662;-78
2020/12/11 10:42:15;;;;;;;10.80;9.13;;;;;;;4.29;72.01;93961.41;5038373;28;20210;-78
2020/12/11 10:44:41;;;;;;;10.93;9.13;;;;;;;4.42;71.45;93959.03;5038384;28;20222;-76
2020/12/11 10:47:07;;;;;;;12.33;9.10;;;;;;;4.38;71.01;93963.72;5035912;28;20661;-77
2020/12/11 10:49:34;;;;;;;11.67;9.27;;;;;;;4.35;71.74;93961.50;5035151;28;20208;-79
2020/12/11 10:52:00;;;;;;;11.63;9.33;;;;;;;4.40;71.32;93963.53;5035390;28;20341;-80
2020/12/11 10:54:27;;;;;;;11.77;9.40;;;;;;;4.43;70.86;93963.16;5034421;28;20237;-79
2020/12/11 10:56:53;;;;;;;10.90;8.83;;;;;;;4.50;70.68;93958.94;5034951;28;20202;-76
2020/12/11 10:59:19;;;;;;;10.33;8.70;;;;;;;4.47;70.81;93957.53;5031056;28;20684;-76
2020/12/11 11:01:45;;;;;;;12.90;9.80;;;;;;;4.34;70.83;93948.94;5029795;28;20233;-78
2020/12/11 11:04:11;;;;;;;11.67;9.10;;;;;;;4.44;71.07;93939.25;5024086;28;20309;-76
2020/12/11 11:06:40;;;;;;;13.57;9.07;;;;;;;4.26;71.47;93933.75;5033592;28;20615;-79
2020/12/11 11:09:14;;;;;;;10.73;8.90;;;;;;;4.28;71.38;93929.28;5034564;28;20206;-77
2020/12/11 11:11:43;;;;;;;17.43;9.30;;;;;;;4.42;71.21;93926.72;5051563;28;20287;-79
2020/12/11 11:14:31;;;;;;;10.43;8.70;;;;;;;4.33;71.18;93930.31;5054379;28;20288;-79
2020/12/11 11:20:04;;;;;;;11.13;8.90;;;;;;;4.21;71.75;93930.97;5034079;28;20201;-76
2020/12/11 11:22:42;;;;;;;13.03;8.47;;;;;;;4.10;71.17;93924.56;5034446;28;20201;-78
2020/12/11 11:25:28;;;;;;;10.67;8.83;;;;;;;4.14;72.00;93929.13;5034459;28;20221;-76
2020/12/11 11:27:56;;;;;;;9.30;8.30;;;;;;;4.40;70.94;93938.06;5034402;28;20226;-79
2020/12/11 11:30:23;;;;;;;10.00;8.33;;;;;;;4.40;69.89;93938.84;5034134;28;20212;-79
2020/12/11 11:32:50;;;;;;;12.60;9.13;;;;;;;4.39;69.91;93933.91;5033965;28;20325;-76
2020/12/11 11:35:17;;;;;;;12.23;8.40;;;;;;;4.37;70.78;93938.41;5034196;28;20225;-77
2020/12/11 11:37:43;;;;;;;11.20;8.93;;;;;;;4.24;70.82;93936.47;5033010;28;20226;-76
2020/12/11 11:40:09;;;;;;;10.00;8.50;;;;;;;4.23;70.95;93932.38;5032559;28;20232;-76